sensor_id;sensor_type;location;lat;lon;timestamp;P1;durP1;ratioP1;P2;durP2;ratioP2
66972;SDS011;53902;51.466;-2.586;2022-12-07T00:00:57;8.55;;;4.35;;
66972;SDS011;53902;51.466;-2.586;2022-12-07T00:03:35;6.72;;;4.47;;
66972;SDS011;53902;51.466;-2.586;2022-12-07T00:06:03;7.78;;;5.10;;
66972;SDS011;53902;51.466;-2.586;2022-12-07T00:08:29;5.88;;;4.00;;
66972;SDS011;53902;51.466;-2.586;2022-12-07T00:11:19;7.60;;;4.30;;
66972;SDS011;53902;51.466;-2.586;2022-12-07T00:13:46;7.15;;;4.18;;
66972;SDS011;53902;51.466;-2.586;2022-12-07T00:16:14;15.80;;;5.47;;
66972;SDS011;53902;51.466;-2.586;2022-12-07T00:18:41;6.82;;;4.07;;
66972;SDS011;53902;51.466;-2.586;2022-12-07T00:21:08;8.07;;;4.60;;
66972;SDS011;53902;51.466;-2.586;2022-12-07T00:23:34;8.20;;;4.25;;
66972;SDS011;53902;51.466;-2.586;2022-12-07T00:26:04;8.07;;;4.25;;
66972;SDS011;53902;51.466;-2.586;2022-12-07T00:28:36;9.60;;;4.53;;
66972;SDS011;53902;51.466;-2.586;2022-12-07T00:31:02;12.60;;;4.30;;
66972;SDS011;53902;51.466;-2.586;2022-12-07T00:33:29;6.93;;;4.07;;
66972;SDS011;53902;51.466;-2.586;2022-12-07T00:35:55;11.00;;;5.93;;
66972;SDS011;53902;51.466;-2.586;2022-12-07T00:38:24;9.98;;;5.25;;
66972;SDS011;53902;51.466;-2.586;2022-12-07T00:40:54;10.57;;;4.65;;
66972;SDS011;53902;51.466;-2.586;2022-12-07T00:43:20;6.95;;;4.20;;
66972;SDS011;53902;51.466;-2.586;2022-12-07T00:45:46;9.60;;;5.28;;
66972;SDS011;53902;51.466;-2.586;2022-12-07T00:48:14;6.60;;;4.50;;
66972;SDS011;53902;51.466;-2.586;2022-12-07T00:50:39;15.68;;;4.57;;
66972;SDS011;53902;51.466;-2.586;2022-12-07T00:53:07;7.63;;;3.95;;
66972;SDS011;53902;51.466;-2.586;2022-12-07T00:55:33;6.05;;;3.90;;
66972;SDS011;53902;51.466;-2.586;2022-12-07T00:58:02;7.63;;;4.90;;
66972;SDS011;53902;51.466;-2.586;2022-12-07T01:00:30;7.00;;;4.63;;
66972;SDS011;53902;51.466;-2.586;2022-12-07T01:02:55;6.63;;;4.70;;
66972;SDS011;53902;51.466;-2.586;2022-12-07T01:05:24;9.30;;;4.85;;
66972;SDS011;53902;51.466;-2.586;2022-12-07T01:07:49;6.90;;;4.50;;
66972;SDS011;53902;51.466;-2.586;2022-12-07T01:10:14;9.63;;;4.38;;
66972;SDS011;53902;51.466;-2.586;2022-12-07T01:12:40;13.13;;;5.40;;
66972;SDS011;53902;51.466;-2.586;2022-12-07T01:15:06;7.65;;;4.35;;
66972;SDS011;53902;51.466;-2.586;2022-12-07T01:17:32;7.22;;;4.18;;
66972;SDS011;53902;51.466;-2.586;2022-12-07T01:20:05;7.75;;;5.22;;
66972;SDS011;53902;51.466;-2.586;2022-12-07T01:22:31;9.57;;;5.85;;
66972;SDS011;53902;51.466;-2.586;2022-12-07T01:25:11;9.77;;;4.68;;
66972;SDS011;53902;51.466;-2.586;2022-12-07T01:27:36;7.32;;;3.92;;
66972;SDS011;53902;51.466;-2.586;2022-12-07T01:30:03;5.88;;;3.92;;
66972;SDS011;53902;51.466;-2.586;2022-12-07T01:32:30;9.63;;;5.28;;
66972;SDS011;53902;51.466;-2.586;2022-12-07T01:34:55;6.70;;;4.07;;
66972;SDS011;53902;51.466;-2.586;2022-12-07T01:37:21;6.47;;;3.42;;
66972;SDS011;53902;51.466;-2.586;2022-12-07T01:39:50;8.90;;;3.92;;
66972;SDS011;53902;51.466;-2.586;2022-12-07T01:42:18;8.60;;;5.30;;
66972;SDS011;53902;51.466;-2.586;2022-12-07T01:47:56;7.07;;;4.72;;
66972;SDS011;53902;51.466;-2.586;2022-12-07T01:50:23;5.65;;;4.35;;
66972;SDS011;53902;51.466;-2.586;2022-12-07T01:52:50;9.15;;;5.20;;
66972;SDS011;53902;51.466;-2.586;2022-12-07T01:55:17;6.88;;;4.10;;
66972;SDS011;53902;51.466;-2.586;2022-12-07T01:57:47;9.60;;;4.88;;
66972;SDS011;53902;51.466;-2.586;2022-12-07T02:00:14;8.55;;;5.18;;
66972;SDS011;53902;51.466;-2.586;2022-12-07T02:05:14;11.05;;;5.38;;
66972;SDS011;53902;51.466;-2.586;2022-12-07T02:07:39;6.88;;;4.43;;
66972;SDS011;53902;51.466;-2.586;2022-12-07T02:12:42;6.05;;;4.28;;
66972;SDS011;53902;51.466;-2.586;2022-12-07T02:15:10;7.97;;;4.38;;
66972;SDS011;53902;51.466;-2.586;2022-12-07T02:18:00;7.43;;;4.75;;
66972;SDS011;53902;51.466;-2.586;2022-12-07T02:20:28;6.75;;;4.05;;
66972;SDS011;53902;51.466;-2.586;2022-12-07T02:31:11;8.05;;;3.90;;
66972;SDS011;53902;51.466;-2.586;2022-12-07T02:33:47;9.73;;;3.33;;
66972;SDS011;53902;51.466;-2.586;2022-12-07T02:43:47;8.75;;;5.63;;
66972;SDS011;53902;51.466;-2.586;2022-12-07T02:46:32;9.05;;;4.32;;
66972;SDS011;53902;51.466;-2.586;2022-12-07T02:48:59;6.82;;;4.63;;
66972;SDS011;53902;51.466;-2.586;2022-12-07T02:51:25;8.45;;;4.10;;
66972;SDS011;53902;51.466;-2.586;2022-12-07T02:53:51;8.32;;;4.47;;
66972;SDS011;53902;51.466;-2.586;2022-12-07T03:01:55;5.45;;;4.50;;
66972;SDS011;53902;51.466;-2.586;2022-12-07T03:07:27;6.78;;;3.67;;
66972;SDS011;53902;51.466;-2.586;2022-12-07T03:12:36;6.28;;;4.10;;
66972;SDS011;53902;51.466;-2.586;2022-12-07T03:15:14;9.25;;;3.78;;
66972;SDS011;53902;51.466;-2.586;2022-12-07T03:17:43;6.55;;;4.07;;
66972;SDS011;53902;51.466;-2.586;2022-12-07T03:20:13;8.88;;;5.05;;
66972;SDS011;53902;51.466;-2.586;2022-12-07T03:22:43;5.30;;;4.13;;
66972;SDS011;53902;51.466;-2.586;2022-12-07T03:25:10;7.00;;;4.05;;
66972;SDS011;53902;51.466;-2.586;2022-12-07T03:27:39;7.95;;;3.83;;
66972;SDS011;53902;51.466;-2.586;2022-12-07T03:30:20;5.05;;;3.78;;
66972;SDS011;53902;51.466;-2.586;2022-12-07T03:35:28;5.90;;;4.20;;
66972;SDS011;53902;51.466;-2.586;2022-12-07T03:38:08;4.78;;;3.42;;
66972;SDS011;53902;51.466;-2.586;2022-12-07T03:40:45;5.13;;;3.33;;
66972;SDS011;53902;51.466;-2.586;2022-12-07T03:43:14;6.90;;;4.68;;
66972;SDS011;53902;51.466;-2.586;2022-12-07T03:45:42;5.90;;;3.50;;
66972;SDS011;53902;51.466;-2.586;2022-12-07T03:51:30;4.57;;;3.50;;
66972;SDS011;53902;51.466;-2.586;2022-12-07T03:53:43;5.50;;;2.72;;
66972;SDS011;53902;51.466;-2.586;2022-12-07T03:56:11;7.10;;;4.13;;
66972;SDS011;53902;51.466;-2.586;2022-12-07T03:58:37;6.32;;;4.20;;
66972;SDS011;53902;51.466;-2.586;2022-12-07T04:01:11;4.80;;;3.13;;
66972;SDS011;53902;51.466;-2.586;2022-12-07T04:03:42;5.75;;;3.15;;
66972;SDS011;53902;51.466;-2.586;2022-12-07T04:06:07;10.25;;;4.00;;
66972;SDS011;53902;51.466;-2.586;2022-12-07T04:08:35;6.38;;;3.45;;
66972;SDS011;53902;51.466;-2.586;2022-12-07T04:11:00;3.33;;;3.03;;
66972;SDS011;53902;51.466;-2.586;2022-12-07T04:13:26;5.13;;;3.25;;
66972;SDS011;53902;51.466;-2.586;2022-12-07T04:15:51;4.97;;;3.22;;
66972;SDS011;53902;51.466;-2.586;2022-12-07T04:18:17;9.82;;;3.45;;
66972;SDS011;53902;51.466;-2.586;2022-12-07T04:20:42;4.25;;;2.90;;
66972;SDS011;53902;51.466;-2.586;2022-12-07T04:23:08;13.63;;;4.47;;
66972;SDS011;53902;51.466;-2.586;2022-12-07T04:25:33;6.55;;;3.35;;
66972;SDS011;53902;51.466;-2.586;2022-12-07T04:27:58;3.85;;;2.63;;
66972;SDS011;53902;51.466;-2.586;2022-12-07T04:30:24;8.70;;;3.75;;
66972;SDS011;53902;51.466;-2.586;2022-12-07T04:32:52;5.50;;;3.00;;
66972;SDS011;53902;51.466;-2.586;2022-12-07T04:35:17;9.32;;;4.53;;
66972;SDS011;53902;51.466;-2.586;2022-12-07T04:37:45;4.03;;;3.22;;
66972;SDS011;53902;51.466;-2.586;2022-12-07T04:40:11;7.95;;;3.13;;
66972;SDS011;53902;51.466;-2.586;2022-12-07T04:42:39;5.82;;;3.53;;
66972;SDS011;53902;51.466;-2.586;2022-12-07T04:45:05;3.30;;;2.78;;
66972;SDS011;53902;51.466;-2.586;2022-12-07T04:47:33;6.03;;;3.15;;
66972;SDS011;53902;51.466;-2.586;2022-12-07T04:49:59;11.63;;;3.35;;
66972;SDS011;53902;51.466;-2.586;2022-12-07T04:52:24;9.07;;;3.35;;
66972;SDS011;53902;51.466;-2.586;2022-12-07T04:54:49;4.47;;;3.53;;
66972;SDS011;53902;51.466;-2.586;2022-12-07T04:57:17;6.68;;;3.97;;
66972;SDS011;53902;51.466;-2.586;2022-12-07T04:59:43;5.85;;;3.53;;
66972;SDS011;53902;51.466;-2.586;2022-12-07T05:02:08;10.30;;;3.55;;
66972;SDS011;53902;51.466;-2.586;2022-12-07T05:04:36;9.40;;;4.15;;
66972;SDS011;53902;51.466;-2.586;2022-12-07T05:07:01;4.40;;;3.08;;
66972;SDS011;53902;51.466;-2.586;2022-12-07T05:09:29;5.90;;;3.80;;
66972;SDS011;53902;51.466;-2.586;2022-12-07T05:11:54;4.70;;;3.47;;
66972;SDS011;53902;51.466;-2.586;2022-12-07T05:14:20;6.05;;;4.38;;
66972;SDS011;53902;51.466;-2.586;2022-12-07T05:16:48;4.97;;;3.70;;
66972;SDS011;53902;51.466;-2.586;2022-12-07T05:19:15;8.30;;;3.45;;
66972;SDS011;53902;51.466;-2.586;2022-12-07T05:21:41;5.15;;;3.17;;
66972;SDS011;53902;51.466;-2.586;2022-12-07T05:24:10;3.90;;;3.28;;
66972;SDS011;53902;51.466;-2.586;2022-12-07T05:26:39;11.00;;;3.90;;
66972;SDS011;53902;51.466;-2.586;2022-12-07T05:29:05;7.43;;;3.92;;
66972;SDS011;53902;51.466;-2.586;2022-12-07T05:31:31;5.95;;;3.65;;
66972;SDS011;53902;51.466;-2.586;2022-12-07T05:33:59;7.60;;;3.47;;
66972;SDS011;53902;51.466;-2.586;2022-12-07T05:36:24;4.18;;;3.20;;
66972;SDS011;53902;51.466;-2.586;2022-12-07T05:38:53;7.40;;;4.15;;
66972;SDS011;53902;51.466;-2.586;2022-12-07T05:41:21;12.25;;;3.80;;
66972;SDS011;53902;51.466;-2.586;2022-12-07T05:44:07;6.38;;;4.00;;
66972;SDS011;53902;51.466;-2.586;2022-12-07T05:46:33;9.75;;;4.57;;
66972;SDS011;53902;51.466;-2.586;2022-12-07T05:48:59;7.65;;;3.60;;
66972;SDS011;53902;51.466;-2.586;2022-12-07T05:51:24;4.10;;;3.40;;
66972;SDS011;53902;51.466;-2.586;2022-12-07T05:53:49;6.35;;;3.75;;
66972;SDS011;53902;51.466;-2.586;2022-12-07T05:56:15;4.72;;;4.10;;
66972;SDS011;53902;51.466;-2.586;2022-12-07T05:58:43;10.15;;;3.95;;
66972;SDS011;53902;51.466;-2.586;2022-12-07T06:01:27;7.32;;;4.47;;
66972;SDS011;53902;51.466;-2.586;2022-12-07T06:03:53;5.38;;;3.88;;
66972;SDS011;53902;51.466;-2.586;2022-12-07T06:06:21;7.25;;;3.75;;
66972;SDS011;53902;51.466;-2.586;2022-12-07T06:08:46;10.63;;;3.63;;
66972;SDS011;53902;51.466;-2.586;2022-12-07T06:11:12;8.13;;;3.60;;
66972;SDS011;53902;51.466;-2.586;2022-12-07T06:13:55;5.10;;;3.40;;
66972;SDS011;53902;51.466;-2.586;2022-12-07T06:16:21;9.68;;;4.10;;
66972;SDS011;53902;51.466;-2.586;2022-12-07T06:18:46;5.28;;;3.53;;
66972;SDS011;53902;51.466;-2.586;2022-12-07T06:21:12;5.35;;;3.92;;
66972;SDS011;53902;51.466;-2.586;2022-12-07T06:23:37;11.15;;;4.20;;
66972;SDS011;53902;51.466;-2.586;2022-12-07T06:26:03;9.35;;;3.95;;
66972;SDS011;53902;51.466;-2.586;2022-12-07T06:28:28;6.53;;;5.03;;
66972;SDS011;53902;51.466;-2.586;2022-12-07T06:31:12;5.88;;;4.47;;
66972;SDS011;53902;51.466;-2.586;2022-12-07T06:33:37;7.10;;;3.88;;
66972;SDS011;53902;51.466;-2.586;2022-12-07T06:36:03;5.28;;;4.03;;
66972;SDS011;53902;51.466;-2.586;2022-12-07T06:38:28;9.32;;;5.00;;
66972;SDS011;53902;51.466;-2.586;2022-12-07T06:40:54;7.38;;;5.32;;
66972;SDS011;53902;51.466;-2.586;2022-12-07T06:43:22;5.60;;;3.97;;
66972;SDS011;53902;51.466;-2.586;2022-12-07T06:45:47;7.43;;;4.38;;
66972;SDS011;53902;51.466;-2.586;2022-12-07T06:48:15;9.05;;;4.25;;
66972;SDS011;53902;51.466;-2.586;2022-12-07T06:50:41;5.72;;;4.25;;
66972;SDS011;53902;51.466;-2.586;2022-12-07T06:53:09;6.90;;;4.43;;
66972;SDS011;53902;51.466;-2.586;2022-12-07T06:55:35;9.25;;;4.47;;
66972;SDS011;53902;51.466;-2.586;2022-12-07T06:58:00;7.88;;;4.95;;
66972;SDS011;53902;51.466;-2.586;2022-12-07T07:00:26;5.97;;;4.43;;
66972;SDS011;53902;51.466;-2.586;2022-12-07T07:02:52;4.80;;;3.67;;
66972;SDS011;53902;51.466;-2.586;2022-12-07T07:05:17;10.00;;;4.32;;
66972;SDS011;53902;51.466;-2.586;2022-12-07T07:07:48;9.98;;;3.72;;
66972;SDS011;53902;51.466;-2.586;2022-12-07T07:10:14;4.97;;;4.03;;
66972;SDS011;53902;51.466;-2.586;2022-12-07T07:12:39;10.20;;;5.15;;
66972;SDS011;53902;51.466;-2.586;2022-12-07T07:15:08;6.72;;;4.18;;
66972;SDS011;53902;51.466;-2.586;2022-12-07T07:17:42;4.25;;;3.70;;
66972;SDS011;53902;51.466;-2.586;2022-12-07T07:20:08;5.05;;;3.95;;
66972;SDS011;53902;51.466;-2.586;2022-12-07T07:22:37;4.45;;;3.28;;
66972;SDS011;53902;51.466;-2.586;2022-12-07T07:25:05;6.70;;;5.35;;
66972;SDS011;53902;51.466;-2.586;2022-12-07T07:27:30;11.93;;;4.80;;
66972;SDS011;53902;51.466;-2.586;2022-12-07T07:29:56;6.38;;;4.28;;
66972;SDS011;53902;51.466;-2.586;2022-12-07T07:32:21;7.78;;;5.25;;
66972;SDS011;53902;51.466;-2.586;2022-12-07T07:34:47;6.13;;;4.80;;
66972;SDS011;53902;51.466;-2.586;2022-12-07T07:37:15;9.68;;;4.20;;
66972;SDS011;53902;51.466;-2.586;2022-12-07T07:39:41;8.85;;;4.75;;
66972;SDS011;53902;51.466;-2.586;2022-12-07T07:42:14;12.38;;;5.03;;
66972;SDS011;53902;51.466;-2.586;2022-12-07T07:44:39;9.75;;;4.43;;
66972;SDS011;53902;51.466;-2.586;2022-12-07T07:47:04;6.03;;;3.90;;
66972;SDS011;53902;51.466;-2.586;2022-12-07T07:49:30;6.60;;;4.20;;
66972;SDS011;53902;51.466;-2.586;2022-12-07T07:51:58;6.97;;;3.85;;
66972;SDS011;53902;51.466;-2.586;2022-12-07T07:54:26;6.47;;;5.15;;
66972;SDS011;53902;51.466;-2.586;2022-12-07T07:56:52;6.28;;;4.40;;
66972;SDS011;53902;51.466;-2.586;2022-12-07T07:59:17;14.57;;;5.70;;
66972;SDS011;53902;51.466;-2.586;2022-12-07T08:01:45;7.88;;;5.10;;
66972;SDS011;53902;51.466;-2.586;2022-12-07T08:04:13;12.55;;;5.53;;
66972;SDS011;53902;51.466;-2.586;2022-12-07T08:06:39;7.95;;;5.22;;
66972;SDS011;53902;51.466;-2.586;2022-12-07T08:09:07;10.68;;;5.47;;
66972;SDS011;53902;51.466;-2.586;2022-12-07T08:11:33;9.60;;;5.30;;
66972;SDS011;53902;51.466;-2.586;2022-12-07T08:13:58;7.20;;;4.70;;
66972;SDS011;53902;51.466;-2.586;2022-12-07T08:16:24;8.65;;;5.15;;
66972;SDS011;53902;51.466;-2.586;2022-12-07T08:18:53;15.63;;;5.80;;
66972;SDS011;53902;51.466;-2.586;2022-12-07T08:21:18;9.88;;;6.43;;
66972;SDS011;53902;51.466;-2.586;2022-12-07T08:23:44;12.25;;;6.90;;
66972;SDS011;53902;51.466;-2.586;2022-12-07T08:26:10;7.40;;;5.75;;
66972;SDS011;53902;51.466;-2.586;2022-12-07T08:28:38;10.93;;;6.70;;
66972;SDS011;53902;51.466;-2.586;2022-12-07T08:31:07;13.18;;;6.05;;
66972;SDS011;53902;51.466;-2.586;2022-12-07T08:33:35;9.00;;;5.10;;
66972;SDS011;53902;51.466;-2.586;2022-12-07T08:36:05;9.32;;;5.32;;
66972;SDS011;53902;51.466;-2.586;2022-12-07T08:38:36;10.45;;;6.18;;
66972;SDS011;53902;51.466;-2.586;2022-12-07T08:41:02;8.18;;;5.13;;
66972;SDS011;53902;51.466;-2.586;2022-12-07T08:43:28;9.63;;;6.30;;
66972;SDS011;53902;51.466;-2.586;2022-12-07T08:45:58;8.10;;;5.43;;
66972;SDS011;53902;51.466;-2.586;2022-12-07T08:48:31;9.65;;;5.32;;
66972;SDS011;53902;51.466;-2.586;2022-12-07T08:51:00;7.00;;;5.38;;
66972;SDS011;53902;51.466;-2.586;2022-12-07T08:53:26;10.27;;;5.78;;
66972;SDS011;53902;51.466;-2.586;2022-12-07T08:55:52;12.00;;;6.50;;
66972;SDS011;53902;51.466;-2.586;2022-12-07T08:58:18;9.80;;;5.70;;
66972;SDS011;53902;51.466;-2.586;2022-12-07T09:00:48;14.13;;;6.35;;
66972;SDS011;53902;51.466;-2.586;2022-12-07T09:03:16;12.38;;;7.32;;
66972;SDS011;53902;51.466;-2.586;2022-12-07T09:05:41;12.73;;;7.72;;
66972;SDS011;53902;51.466;-2.586;2022-12-07T09:08:07;11.32;;;6.43;;
66972;SDS011;53902;51.466;-2.586;2022-12-07T09:10:33;12.80;;;6.50;;
66972;SDS011;53902;51.466;-2.586;2022-12-07T09:13:01;9.07;;;6.05;;
66972;SDS011;53902;51.466;-2.586;2022-12-07T09:15:29;14.50;;;6.90;;
66972;SDS011;53902;51.466;-2.586;2022-12-07T09:17:57;8.55;;;5.85;;
66972;SDS011;53902;51.466;-2.586;2022-12-07T09:20:23;10.05;;;6.35;;
66972;SDS011;53902;51.466;-2.586;2022-12-07T09:22:48;12.98;;;7.03;;
66972;SDS011;53902;51.466;-2.586;2022-12-07T09:25:14;11.45;;;6.45;;
66972;SDS011;53902;51.466;-2.586;2022-12-07T09:27:39;10.93;;;5.88;;
66972;SDS011;53902;51.466;-2.586;2022-12-07T09:30:05;16.77;;;6.68;;
66972;SDS011;53902;51.466;-2.586;2022-12-07T09:32:31;16.30;;;6.72;;
66972;SDS011;53902;51.466;-2.586;2022-12-07T09:34:56;10.50;;;6.80;;
66972;SDS011;53902;51.466;-2.586;2022-12-07T09:37:22;10.80;;;7.40;;
66972;SDS011;53902;51.466;-2.586;2022-12-07T09:39:47;10.23;;;7.25;;
66972;SDS011;53902;51.466;-2.586;2022-12-07T09:42:19;12.75;;;7.00;;
66972;SDS011;53902;51.466;-2.586;2022-12-07T09:44:57;11.40;;;7.05;;
66972;SDS011;53902;51.466;-2.586;2022-12-07T09:47:23;12.18;;;6.53;;
66972;SDS011;53902;51.466;-2.586;2022-12-07T09:49:49;14.50;;;6.95;;
66972;SDS011;53902;51.466;-2.586;2022-12-07T09:54:49;8.07;;;5.78;;
66972;SDS011;53902;51.466;-2.586;2022-12-07T09:57:18;16.27;;;7.55;;
66972;SDS011;53902;51.466;-2.586;2022-12-07T09:59:49;13.63;;;7.28;;
66972;SDS011;53902;51.466;-2.586;2022-12-07T10:02:25;22.20;;;7.35;;
66972;SDS011;53902;51.466;-2.586;2022-12-07T10:05:00;8.68;;;6.13;;
66972;SDS011;53902;51.466;-2.586;2022-12-07T10:07:29;8.15;;;5.97;;
66972;SDS011;53902;51.466;-2.586;2022-12-07T10:09:54;12.13;;;7.25;;
66972;SDS011;53902;51.466;-2.586;2022-12-07T10:12:22;10.20;;;6.05;;
66972;SDS011;53902;51.466;-2.586;2022-12-07T10:15:03;13.48;;;5.97;;
66972;SDS011;53902;51.466;-2.586;2022-12-07T10:20:14;11.05;;;6.20;;
66972;SDS011;53902;51.466;-2.586;2022-12-07T10:23:04;9.73;;;6.35;;
66972;SDS011;53902;51.466;-2.586;2022-12-07T10:25:34;9.73;;;6.10;;
66972;SDS011;53902;51.466;-2.586;2022-12-07T10:28:03;9.63;;;6.28;;
66972;SDS011;53902;51.466;-2.586;2022-12-07T10:31:00;11.00;;;5.78;;
66972;SDS011;53902;51.466;-2.586;2022-12-07T10:33:51;8.63;;;5.57;;
66972;SDS011;53902;51.466;-2.586;2022-12-07T10:36:27;13.13;;;6.13;;
66972;SDS011;53902;51.466;-2.586;2022-12-07T10:41:29;15.45;;;6.00;;
66972;SDS011;53902;51.466;-2.586;2022-12-07T10:43:57;10.43;;;6.15;;
66972;SDS011;53902;51.466;-2.586;2022-12-07T10:46:33;23.30;;;6.50;;
66972;SDS011;53902;51.466;-2.586;2022-12-07T11:11:54;10.48;;;4.85;;
66972;SDS011;53902;51.466;-2.586;2022-12-07T11:15:14;4.95;;;4.22;;
66972;SDS011;53902;51.466;-2.586;2022-12-07T11:20:34;12.48;;;3.92;;
66972;SDS011;53902;51.466;-2.586;2022-12-07T11:26:29;10.13;;;5.40;;
66972;SDS011;53902;51.466;-2.586;2022-12-07T11:37:33;10.50;;;3.40;;
66972;SDS011;53902;51.466;-2.586;2022-12-07T11:40:04;5.18;;;2.65;;
66972;SDS011;53902;51.466;-2.586;2022-12-07T11:42:39;7.53;;;2.75;;
66972;SDS011;53902;51.466;-2.586;2022-12-07T11:45:28;3.33;;;2.20;;
66972;SDS011;53902;51.466;-2.586;2022-12-07T11:48:03;3.88;;;2.22;;
66972;SDS011;53902;51.466;-2.586;2022-12-07T11:50:45;6.32;;;2.60;;
66972;SDS011;53902;51.466;-2.586;2022-12-07T11:56:06;4.53;;;2.35;;
66972;SDS011;53902;51.466;-2.586;2022-12-07T11:58:42;8.43;;;2.95;;
66972;SDS011;53902;51.466;-2.586;2022-12-07T12:03:43;6.47;;;2.65;;
66972;SDS011;53902;51.466;-2.586;2022-12-07T12:06:11;2.75;;;2.40;;
66972;SDS011;53902;51.466;-2.586;2022-12-07T12:08:38;6.10;;;2.88;;
66972;SDS011;53902;51.466;-2.586;2022-12-07T12:20:00;4.55;;;2.90;;
66972;SDS011;53902;51.466;-2.586;2022-12-07T12:22:51;8.10;;;3.75;;
66972;SDS011;53902;51.466;-2.586;2022-12-07T12:25:34;8.55;;;3.80;;
66972;SDS011;53902;51.466;-2.586;2022-12-07T12:28:02;5.03;;;3.15;;
66972;SDS011;53902;51.466;-2.586;2022-12-07T12:30:37;6.55;;;3.33;;
66972;SDS011;53902;51.466;-2.586;2022-12-07T12:33:27;8.93;;;3.03;;
66972;SDS011;53902;51.466;-2.586;2022-12-07T12:51:57;4.53;;;3.47;;
66972;SDS011;53902;51.466;-2.586;2022-12-07T12:54:41;5.25;;;3.10;;
66972;SDS011;53902;51.466;-2.586;2022-12-07T12:57:28;3.47;;;2.53;;
66972;SDS011;53902;51.466;-2.586;2022-12-07T12:59:57;5.75;;;3.38;;
66972;SDS011;53902;51.466;-2.586;2022-12-07T13:05:18;6.25;;;3.33;;
66972;SDS011;53902;51.466;-2.586;2022-12-07T13:15:36;5.80;;;2.25;;
66972;SDS011;53902;51.466;-2.586;2022-12-07T13:18:04;6.97;;;3.10;;
66972;SDS011;53902;51.466;-2.586;2022-12-07T13:20:49;4.80;;;2.97;;
66972;SDS011;53902;51.466;-2.586;2022-12-07T13:23:19;7.22;;;3.92;;
66972;SDS011;53902;51.466;-2.586;2022-12-07T13:25:56;6.75;;;3.25;;
66972;SDS011;53902;51.466;-2.586;2022-12-07T13:28:52;4.93;;;3.13;;
66972;SDS011;53902;51.466;-2.586;2022-12-07T13:31:47;9.85;;;4.38;;
66972;SDS011;53902;51.466;-2.586;2022-12-07T13:34:31;3.30;;;2.58;;
66972;SDS011;53902;51.466;-2.586;2022-12-07T13:37:00;7.10;;;3.45;;
66972;SDS011;53902;51.466;-2.586;2022-12-07T13:39:27;6.35;;;3.38;;
66972;SDS011;53902;51.466;-2.586;2022-12-07T13:41:57;6.93;;;2.92;;
66972;SDS011;53902;51.466;-2.586;2022-12-07T13:44:33;2.88;;;2.50;;
66972;SDS011;53902;51.466;-2.586;2022-12-07T13:49:33;4.20;;;2.65;;
66972;SDS011;53902;51.466;-2.586;2022-12-07T13:54:43;2.20;;;1.80;;
66972;SDS011;53902;51.466;-2.586;2022-12-07T13:57:11;7.05;;;2.28;;
66972;SDS011;53902;51.466;-2.586;2022-12-07T13:59:37;4.85;;;1.95;;
66972;SDS011;53902;51.466;-2.586;2022-12-07T14:02:16;2.95;;;1.50;;
66972;SDS011;53902;51.466;-2.586;2022-12-07T14:04:45;3.55;;;1.75;;
66972;SDS011;53902;51.466;-2.586;2022-12-07T14:07:28;3.35;;;1.88;;
66972;SDS011;53902;51.466;-2.586;2022-12-07T14:10:04;4.95;;;1.75;;
66972;SDS011;53902;51.466;-2.586;2022-12-07T14:12:31;3.95;;;2.13;;
66972;SDS011;53902;51.466;-2.586;2022-12-07T14:14:58;6.68;;;3.38;;
66972;SDS011;53902;51.466;-2.586;2022-12-07T14:17:25;5.30;;;2.38;;
66972;SDS011;53902;51.466;-2.586;2022-12-07T14:19:55;5.20;;;1.75;;
66972;SDS011;53902;51.466;-2.586;2022-12-07T14:22:29;10.45;;;2.35;;
66972;SDS011;53902;51.466;-2.586;2022-12-07T14:25:11;2.65;;;2.03;;
66972;SDS011;53902;51.466;-2.586;2022-12-07T14:27:39;3.50;;;1.80;;
66972;SDS011;53902;51.466;-2.586;2022-12-07T14:30:28;2.75;;;1.60;;
66972;SDS011;53902;51.466;-2.586;2022-12-07T14:33:00;2.15;;;1.50;;
66972;SDS011;53902;51.466;-2.586;2022-12-07T14:35:32;3.05;;;1.83;;
66972;SDS011;53902;51.466;-2.586;2022-12-07T14:38:00;4.72;;;1.48;;
66972;SDS011;53902;51.466;-2.586;2022-12-07T14:40:26;6.47;;;2.15;;
66972;SDS011;53902;51.466;-2.586;2022-12-07T14:42:55;3.72;;;1.60;;
66972;SDS011;53902;51.466;-2.586;2022-12-07T14:45:23;9.65;;;2.67;;
66972;SDS011;53902;51.466;-2.586;2022-12-07T14:47:48;9.27;;;2.17;;
66972;SDS011;53902;51.466;-2.586;2022-12-07T14:50:17;4.55;;;2.20;;
66972;SDS011;53902;51.466;-2.586;2022-12-07T14:52:44;5.30;;;2.20;;
66972;SDS011;53902;51.466;-2.586;2022-12-07T14:55:26;7.85;;;2.03;;
66972;SDS011;53902;51.466;-2.586;2022-12-07T14:57:53;3.65;;;1.90;;
66972;SDS011;53902;51.466;-2.586;2022-12-07T15:00:19;5.85;;;2.65;;
66972;SDS011;53902;51.466;-2.586;2022-12-07T15:02:46;2.20;;;1.98;;
66972;SDS011;53902;51.466;-2.586;2022-12-07T15:05:12;2.88;;;1.92;;
66972;SDS011;53902;51.466;-2.586;2022-12-07T15:07:43;3.50;;;1.85;;
66972;SDS011;53902;51.466;-2.586;2022-12-07T15:12:47;2.47;;;1.52;;
66972;SDS011;53902;51.466;-2.586;2022-12-07T15:15:13;4.97;;;2.22;;
66972;SDS011;53902;51.466;-2.586;2022-12-07T15:17:39;4.72;;;1.67;;
66972;SDS011;53902;51.466;-2.586;2022-12-07T15:20:05;4.10;;;1.92;;
66972;SDS011;53902;51.466;-2.586;2022-12-07T15:22:34;4.60;;;2.28;;
66972;SDS011;53902;51.466;-2.586;2022-12-07T15:24:59;5.05;;;1.77;;
66972;SDS011;53902;51.466;-2.586;2022-12-07T15:27:29;4.68;;;1.92;;
66972;SDS011;53902;51.466;-2.586;2022-12-07T15:29:58;6.00;;;2.05;;
66972;SDS011;53902;51.466;-2.586;2022-12-07T15:32:31;4.72;;;1.90;;
66972;SDS011;53902;51.466;-2.586;2022-12-07T15:34:57;3.30;;;2.10;;
66972;SDS011;53902;51.466;-2.586;2022-12-07T15:37:22;4.32;;;2.10;;
66972;SDS011;53902;51.466;-2.586;2022-12-07T15:39:50;2.13;;;1.75;;
66972;SDS011;53902;51.466;-2.586;2022-12-07T15:42:15;4.13;;;1.80;;
66972;SDS011;53902;51.466;-2.586;2022-12-07T15:44:41;4.32;;;2.10;;
66972;SDS011;53902;51.466;-2.586;2022-12-07T15:47:25;3.65;;;2.05;;
66972;SDS011;53902;51.466;-2.586;2022-12-07T15:49:50;4.22;;;2.45;;
66972;SDS011;53902;51.466;-2.586;2022-12-07T15:52:18;5.20;;;2.60;;
66972;SDS011;53902;51.466;-2.586;2022-12-07T15:54:44;2.92;;;2.13;;
66972;SDS011;53902;51.466;-2.586;2022-12-07T15:57:19;2.72;;;1.90;;
66972;SDS011;53902;51.466;-2.586;2022-12-07T15:59:44;3.20;;;2.03;;
66972;SDS011;53902;51.466;-2.586;2022-12-07T16:02:17;9.13;;;2.83;;
66972;SDS011;53902;51.466;-2.586;2022-12-07T16:04:47;2.72;;;1.92;;
66972;SDS011;53902;51.466;-2.586;2022-12-07T16:07:15;4.65;;;2.00;;
66972;SDS011;53902;51.466;-2.586;2022-12-07T16:09:42;5.90;;;2.20;;
66972;SDS011;53902;51.466;-2.586;2022-12-07T16:12:08;4.65;;;2.90;;
66972;SDS011;53902;51.466;-2.586;2022-12-07T16:14:34;7.03;;;3.30;;
66972;SDS011;53902;51.466;-2.586;2022-12-07T16:17:02;6.25;;;2.72;;
66972;SDS011;53902;51.466;-2.586;2022-12-07T16:19:29;8.50;;;3.05;;
66972;SDS011;53902;51.466;-2.586;2022-12-07T16:21:55;4.47;;;2.60;;
66972;SDS011;53902;51.466;-2.586;2022-12-07T16:24:20;5.07;;;3.03;;
66972;SDS011;53902;51.466;-2.586;2022-12-07T16:26:46;5.72;;;3.40;;
66972;SDS011;53902;51.466;-2.586;2022-12-07T16:29:12;5.00;;;3.63;;
66972;SDS011;53902;51.466;-2.586;2022-12-07T16:31:40;13.10;;;4.50;;
66972;SDS011;53902;51.466;-2.586;2022-12-07T16:34:06;5.53;;;3.35;;
66972;SDS011;53902;51.466;-2.586;2022-12-07T16:36:32;11.50;;;4.00;;
66972;SDS011;53902;51.466;-2.586;2022-12-07T16:38:58;7.82;;;4.82;;
66972;SDS011;53902;51.466;-2.586;2022-12-07T16:41:29;8.15;;;5.05;;
66972;SDS011;53902;51.466;-2.586;2022-12-07T16:43:54;10.10;;;4.90;;
66972;SDS011;53902;51.466;-2.586;2022-12-07T16:46:20;8.57;;;4.95;;
66972;SDS011;53902;51.466;-2.586;2022-12-07T16:48:48;13.55;;;5.43;;
66972;SDS011;53902;51.466;-2.586;2022-12-07T16:51:23;12.65;;;6.35;;
66972;SDS011;53902;51.466;-2.586;2022-12-07T16:53:49;11.30;;;5.63;;
66972;SDS011;53902;51.466;-2.586;2022-12-07T16:56:17;9.52;;;5.85;;
66972;SDS011;53902;51.466;-2.586;2022-12-07T16:58:43;11.07;;;5.35;;